Time;durP1;ratioP1;P1;durP2;ratioP2;P2;SDS_P1;SDS_P2;PMS_P1;PMS_P2;Temp;Humidity;BMP_temperature;BMP_pressure;BME280_temperature;BME280_humidity;BME280_pressure;Samples;Min_cycle;Max_cycle;Signal;HPM_P1;HPM_P2
2022/05/02 00:00:43;;;;;;;0.90;0.75;;;;;;;;;;4945440;28;20633;-89
2022/05/02 00:03:09;;;;;;;0.20;0.20;;;;;;;;;;4950501;28;20399;-90
2022/05/02 00:05:36;;;;;;;0.20;0.20;;;;;;;;;;4942976;29;20037;-92
2022/05/02 00:08:02;;;;;;;0.05;0.05;;;;;;;;;;4941243;28;20054;-88
2022/05/02 00:10:28;;;;;;;0.22;0.22;;;;;;;;;;4941100;28;20031;-89
2022/05/02 00:12:54;;;;;;;0.17;0.17;;;;;;;;;;4941817;29;20415;-87
2022/05/02 00:15:20;;;;;;;0.22;0.22;;;;;;;;;;4944306;28;20155;-87
2022/05/02 00:17:59;;;;;;;0.10;0.10;;;;;;;;;;4947320;28;20035;-88
2022/05/02 00:20:25;;;;;;;0.20;0.20;;;;;;;;;;4942642;28;20114;-87
2022/05/02 00:22:51;;;;;;;0.00;0.00;;;;;;;;;;4945417;28;20082;-87
2022/05/02 00:25:17;;;;;;;0.20;0.20;;;;;;;;;;4947706;28;20058;-87
2022/05/02 00:27:43;;;;;;;0.10;0.10;;;;;;;;;;4942345;28;20303;-86
2022/05/02 00:30:10;;;;;;;0.67;0.67;;;;;;;;;;4944745;28;20027;-87
2022/05/02 00:32:37;;;;;;;0.20;0.20;;;;;;;;;;4945862;28;20314;-87
2022/05/02 00:35:04;;;;;;;0.10;0.10;;;;;;;;;;4939225;28;20912;-86
2022/05/02 00:37:30;;;;;;;0.30;0.30;;;;;;;;;;4940442;29;20118;-86
2022/05/02 00:39:56;;;;;;;0.87;0.53;;;;;;;;;;4939126;29;20098;-86
2022/05/02 00:42:22;;;;;;;0.00;0.00;;;;;;;;;;4941962;28;20031;-86
2022/05/02 00:44:48;;;;;;;0.10;0.10;;;;;;;;;;4942239;28;20035;-87
2022/05/02 00:47:15;;;;;;;0.10;0.10;;;;;;;;;;4940606;28;20035;-87
2022/05/02 00:49:42;;;;;;;0.32;0.32;;;;;;;;;;4938726;28;20625;-85
2022/05/02 00:52:09;;;;;;;0.32;0.32;;;;;;;;;;4941008;29;20043;-85
2022/05/02 00:54:37;;;;;;;0.30;0.30;;;;;;;;;;4940056;28;20039;-85
2022/05/02 00:57:04;;;;;;;0.10;0.10;;;;;;;;;;4941943;28;20533;-84
2022/05/02 00:59:30;;;;;;;0.20;0.20;;;;;;;;;;4940602;28;20081;-85
2022/05/02 01:01:56;;;;;;;0.07;0.07;;;;;;;;;;4944464;28;20042;-85
2022/05/02 01:04:22;;;;;;;0.90;0.90;;;;;;;;;;4939107;28;20125;-86
2022/05/02 01:09:33;;;;;;;0.90;0.57;;;;;;;;;;4940028;29;20050;-85
2022/05/02 01:11:59;;;;;;;0.10;0.10;;;;;;;;;;4942517;28;20474;-84
2022/05/02 01:14:25;;;;;;;0.13;0.13;;;;;;;;;;4942167;28;20039;-84
2022/05/02 01:16:51;;;;;;;0.38;0.38;;;;;;;;;;4941905;28;20039;-85
2022/05/02 01:19:17;;;;;;;0.20;0.20;;;;;;;;;;4941160;28;20031;-84
2022/05/02 01:21:46;;;;;;;0.10;0.10;;;;;;;;;;4940233;28;20035;-84
2022/05/02 01:24:13;;;;;;;0.20;0.20;;;;;;;;;;4942793;28;20046;-87
2022/05/02 01:26:39;;;;;;;0.17;0.17;;;;;;;;;;4948689;28;20046;-86
2022/05/02 01:29:06;;;;;;;0.00;0.00;;;;;;;;;;4940839;28;20066;-85
2022/05/02 01:31:32;;;;;;;0.10;0.10;;;;;;;;;;4934875;28;20030;-85
2022/05/02 01:34:00;;;;;;;0.17;0.17;;;;;;;;;;4939009;28;20149;-84
2022/05/02 01:36:26;;;;;;;0.20;0.20;;;;;;;;;;4941435;28;20027;-85
2022/05/02 01:38:52;;;;;;;0.10;0.10;;;;;;;;;;4948281;28;20104;-86
2022/05/02 01:41:18;;;;;;;1.00;1.00;;;;;;;;;;4952345;28;20038;-85
2022/05/02 01:43:44;;;;;;;0.50;0.50;;;;;;;;;;4949694;28;20089;-84
2022/05/02 01:46:12;;;;;;;0.10;0.10;;;;;;;;;;4942650;29;20388;-87
2022/05/02 01:48:38;;;;;;;4.10;0.52;;;;;;;;;;4944866;28;20046;-85
2022/05/02 01:51:04;;;;;;;0.00;0.00;;;;;;;;;;4949414;28;20587;-86
2022/05/02 01:53:30;;;;;;;0.10;0.10;;;;;;;;;;4943592;28;20570;-86
2022/05/02 01:55:57;;;;;;;0.50;0.50;;;;;;;;;;4942213;28;20038;-86
2022/05/02 01:58:23;;;;;;;0.00;0.00;;;;;;;;;;4947750;28;20038;-86
2022/05/02 02:00:49;;;;;;;0.10;0.10;;;;;;;;;;4945414;28;20290;-86
2022/05/02 02:03:15;;;;;;;0.23;0.23;;;;;;;;;;4946434;28;20093;-89
2022/05/02 02:05:50;;;;;;;0.13;0.13;;;;;;;;;;4957065;28;20051;-91
2022/05/02 02:08:23;;;;;;;0.00;0.00;;;;;;;;;;4948526;28;20523;-91
2022/05/02 02:10:50;;;;;;;0.20;0.20;;;;;;;;;;4948853;28;20023;-88
2022/05/02 02:13:16;;;;;;;0.30;0.30;;;;;;;;;;4953500;28;20031;-88
2022/05/02 02:15:43;;;;;;;0.50;0.50;;;;;;;;;;4945375;28;20045;-88
2022/05/02 02:18:09;;;;;;;0.00;0.00;;;;;;;;;;4950197;28;20074;-86
2022/05/02 02:20:36;;;;;;;2.10;0.98;;;;;;;;;;4951173;28;20114;-87
2022/05/02 02:23:03;;;;;;;0.20;0.20;;;;;;;;;;4948889;28;20070;-88
2022/05/02 02:25:29;;;;;;;0.00;0.00;;;;;;;;;;4947127;28;20685;-88
2022/05/02 02:27:55;;;;;;;0.13;0.13;;;;;;;;;;4945087;28;20031;-88
2022/05/02 02:30:21;;;;;;;1.07;0.63;;;;;;;;;;4945963;28;20094;-83
2022/05/02 02:32:47;;;;;;;0.57;0.45;;;;;;;;;;4949359;28;20275;-91
2022/05/02 02:35:13;;;;;;;0.00;0.00;;;;;;;;;;4949366;28;20114;-87
2022/05/02 02:37:39;;;;;;;0.23;0.23;;;;;;;;;;4949936;28;20768;-88
2022/05/02 02:40:09;;;;;;;0.10;0.10;;;;;;;;;;4948100;28;20038;-85
2022/05/02 02:42:35;;;;;;;0.22;0.20;;;;;;;;;;4946579;28;20030;-91
2022/05/02 02:45:01;;;;;;;0.20;0.17;;;;;;;;;;4952842;28;20679;-91
2022/05/02 02:47:27;;;;;;;1.80;0.50;;;;;;;;;;4945109;28;20036;-91
2022/05/02 02:49:53;;;;;;;0.30;0.30;;;;;;;;;;4950654;28;20085;-88
2022/05/02 02:52:19;;;;;;;0.25;0.25;;;;;;;;;;4947249;28;20035;-91
2022/05/02 02:54:45;;;;;;;0.25;0.25;;;;;;;;;;4941045;28;20036;-90
2022/05/02 02:57:11;;;;;;;0.20;0.20;;;;;;;;;;4944329;28;20735;-82
2022/05/02 02:59:37;;;;;;;0.17;0.17;;;;;;;;;;4949727;28;20503;-81
2022/05/02 03:02:05;;;;;;;0.17;0.17;;;;;;;;;;4945216;28;20122;-83
2022/05/02 03:07:16;;;;;;;0.45;0.20;;;;;;;;;;4943331;28;20058;-83
2022/05/02 03:09:42;;;;;;;0.30;0.30;;;;;;;;;;4944413;28;20031;-82
2022/05/02 03:12:09;;;;;;;0.97;0.43;;;;;;;;;;4960474;28;20043;-82
2022/05/02 03:14:35;;;;;;;0.43;0.43;;;;;;;;;;4948709;28;20687;-82
2022/05/02 03:17:01;;;;;;;0.22;0.22;;;;;;;;;;4948019;28;20031;-81
2022/05/02 03:19:27;;;;;;;0.38;0.38;;;;;;;;;;4946492;28;20111;-82
2022/05/02 03:21:53;;;;;;;0.10;0.10;;;;;;;;;;4945598;28;20507;-82
2022/05/02 03:24:20;;;;;;;0.30;0.30;;;;;;;;;;4949712;28;20031;-82
2022/05/02 03:26:46;;;;;;;0.00;0.00;;;;;;;;;;4943994;28;20038;-82
2022/05/02 03:29:12;;;;;;;0.15;0.15;;;;;;;;;;4946547;28;20070;-82
2022/05/02 03:31:38;;;;;;;0.60;0.50;;;;;;;;;;4943108;28;20034;-81
2022/05/02 03:34:04;;;;;;;0.20;0.20;;;;;;;;;;4944451;28;20149;-80
2022/05/02 03:36:30;;;;;;;0.53;0.53;;;;;;;;;;4944682;28;20487;-80
2022/05/02 03:38:56;;;;;;;0.20;0.20;;;;;;;;;;4948795;28;20700;-81
2022/05/02 03:41:22;;;;;;;2.90;1.65;;;;;;;;;;4942117;28;20293;-80
2022/05/02 03:43:49;;;;;;;0.55;0.22;;;;;;;;;;4946163;28;20418;-80
2022/05/02 03:46:15;;;;;;;1.00;0.77;;;;;;;;;;4944583;28;20107;-80
2022/05/02 03:48:41;;;;;;;0.23;0.23;;;;;;;;;;4946819;28;20077;-80
2022/05/02 03:51:07;;;;;;;0.43;0.43;;;;;;;;;;4946340;28;20801;-79
2022/05/02 03:53:33;;;;;;;0.10;0.10;;;;;;;;;;4943578;28;20422;-81
2022/05/02 03:55:59;;;;;;;0.00;0.00;;;;;;;;;;4940458;28;20034;-81
2022/05/02 03:58:25;;;;;;;0.10;0.10;;;;;;;;;;4942772;28;20035;-82
2022/05/02 04:00:51;;;;;;;2.27;0.83;;;;;;;;;;4942191;28;20027;-82
2022/05/02 04:03:17;;;;;;;0.28;0.25;;;;;;;;;;4944033;28;20031;-81
2022/05/02 04:05:43;;;;;;;0.17;0.17;;;;;;;;;;4947287;28;20054;-81
2022/05/02 04:08:09;;;;;;;0.15;0.15;;;;;;;;;;4941715;28;20538;-81
2022/05/02 04:10:35;;;;;;;0.20;0.20;;;;;;;;;;4947343;28;20030;-81
2022/05/02 04:13:01;;;;;;;0.13;0.13;;;;;;;;;;4943700;28;20057;-80
2022/05/02 04:15:27;;;;;;;0.30;0.30;;;;;;;;;;4944923;28;20078;-82
2022/05/02 04:17:55;;;;;;;0.20;0.20;;;;;;;;;;4955015;28;20035;-82
2022/05/02 04:20:22;;;;;;;0.77;0.77;;;;;;;;;;4944549;28;20032;-82
2022/05/02 04:22:48;;;;;;;0.22;0.20;;;;;;;;;;4943782;28;20601;-81
2022/05/02 04:25:14;;;;;;;0.63;0.63;;;;;;;;;;4944586;28;20503;-81
2022/05/02 04:27:40;;;;;;;0.10;0.10;;;;;;;;;;4948058;28;20039;-81
2022/05/02 04:30:06;;;;;;;0.15;0.15;;;;;;;;;;4950847;28;20039;-80
2022/05/02 04:32:32;;;;;;;0.43;0.25;;;;;;;;;;4950099;28;20028;-81
2022/05/02 04:34:58;;;;;;;0.10;0.10;;;;;;;;;;4946587;28;20130;-81
2022/05/02 04:37:25;;;;;;;0.20;0.20;;;;;;;;;;4943533;28;20388;-82
2022/05/02 04:39:51;;;;;;;5.28;1.75;;;;;;;;;;4942334;29;20110;-81
2022/05/02 04:42:18;;;;;;;0.10;0.10;;;;;;;;;;4949257;28;20031;-79
2022/05/02 04:44:44;;;;;;;0.35;0.35;;;;;;;;;;4950785;28;20039;-79
2022/05/02 04:47:10;;;;;;;0.32;0.32;;;;;;;;;;4940029;28;20027;-80
2022/05/02 04:49:36;;;;;;;0.20;0.20;;;;;;;;;;4941561;28;20038;-81
2022/05/02 04:52:02;;;;;;;0.30;0.30;;;;;;;;;;4944976;28;20786;-79
2022/05/02 04:54:28;;;;;;;0.00;0.00;;;;;;;;;;4952106;28;20111;-79
2022/05/02 04:56:54;;;;;;;0.10;0.10;;;;;;;;;;4947656;28;20142;-79
2022/05/02 04:59:20;;;;;;;0.20;0.20;;;;;;;;;;4945672;28;20035;-82
2022/05/02 05:01:47;;;;;;;0.13;0.13;;;;;;;;;;4945985;28;20046;-82
2022/05/02 05:04:13;;;;;;;0.17;0.17;;;;;;;;;;4947962;28;20089;-82
2022/05/02 05:06:39;;;;;;;6.18;1.17;;;;;;;;;;4943368;29;20082;-84
2022/05/02 05:09:05;;;;;;;0.10;0.10;;;;;;;;;;4939516;28;20053;-80
2022/05/02 05:11:36;;;;;;;0.40;0.40;;;;;;;;;;4949620;28;20031;-82
2022/05/02 05:17:09;;;;;;;0.50;0.50;;;;;;;;;;4947026;28;20086;-80
2022/05/02 05:19:47;;;;;;;0.10;0.10;;;;;;;;;;4948959;28;20027;-82
2022/05/02 05:22:21;;;;;;;0.52;0.52;;;;;;;;;;4952161;28;20045;-84
2022/05/02 05:25:02;;;;;;;0.10;0.10;;;;;;;;;;4946446;28;20027;-83
2022/05/02 05:27:34;;;;;;;0.00;0.00;;;;;;;;;;4940310;29;20733;-81
2022/05/02 05:30:09;;;;;;;0.00;0.00;;;;;;;;;;4945193;29;20038;-79
2022/05/02 05:32:54;;;;;;;0.25;0.25;;;;;;;;;;4948806;28;20380;-79
2022/05/02 05:35:23;;;;;;;0.20;0.20;;;;;;;;;;4949018;28;20031;-81
2022/05/02 05:38:01;;;;;;;0.00;0.00;;;;;;;;;;4947706;28;20090;-82
2022/05/02 05:40:27;;;;;;;0.20;0.20;;;;;;;;;;4941295;29;20038;-81
2022/05/02 05:42:57;;;;;;;4.50;0.73;;;;;;;;;;4946653;28;20035;-79
2022/05/02 05:45:26;;;;;;;0.00;0.00;;;;;;;;;;4944487;29;20027;-80
2022/05/02 05:48:26;;;;;;;0.20;0.20;;;;;;;;;;4945357;29;20035;-82
2022/05/02 05:51:01;;;;;;;0.10;0.10;;;;;;;;;;4883442;29;20059;-81
2022/05/02 05:53:47;;;;;;;0.10;0.10;;;;;;;;;;4877433;29;20589;-81
2022/05/02 05:56:30;;;;;;;0.43;0.22;;;;;;;;;;4878335;29;20029;-83
2022/05/02 05:59:16;;;;;;;0.20;0.20;;;;;;;;;;4876157;29;20041;-81
2022/05/02 06:01:42;;;;;;;;;;;;;;;;;;4875880;29;20719;-80
2022/05/02 06:04:09;;;;;;;0.28;0.28;;;;;;;;;;4873619;29;19915;-81
2022/05/02 06:06:36;;;;;;;0.10;0.10;;;;;;;;;;4882296;29;20516;-81
2022/05/02 06:09:02;;;;;;;0.20;0.20;;;;;;;;;;4872773;29;20049;-81
2022/05/02 06:11:29;;;;;;;0.32;0.32;;;;;;;;;;4879139;29;20032;-81
2022/05/02 06:13:56;;;;;;;0.35;0.35;;;;;;;;;;4882220;29;20059;-81
2022/05/02 06:19:16;;;;;;;0.20;0.20;;;;;;;;;;4882019;29;20484;-81
2022/05/02 06:21:46;;;;;;;0.32;0.32;;;;;;;;;;4874217;29;20032;-81
2022/05/02 06:24:13;;;;;;;0.15;0.15;;;;;;;;;;4868723;29;20954;-82
2022/05/02 06:26:40;;;;;;;0.30;0.30;;;;;;;;;;4913330;29;20046;-81
2022/05/02 06:29:05;;;;;;;;;;;;;;;;;;4950885;28;20098;-80
2022/05/02 06:31:32;;;;;;;0.10;0.10;;;;;;;;;;4949466;28;19918;-89
2022/05/02 06:33:58;;;;;;;0.65;0.38;;;;;;;;;;4945470;29;20969;-93
2022/05/02 06:36:43;;;;;;;0.28;0.28;;;;;;;;;;4950847;28;20039;-92
2022/05/02 06:39:22;;;;;;;8.20;0.95;;;;;;;;;;4953403;28;20038;-91
2022/05/02 06:42:00;;;;;;;0.25;0.25;;;;;;;;;;4951526;28;20119;-90
2022/05/02 06:44:26;;;;;;;0.52;0.52;;;;;;;;;;4947776;28;20726;-86
2022/05/02 06:46:52;;;;;;;1.03;0.70;;;;;;;;;;4949584;28;20031;-86
2022/05/02 06:49:18;;;;;;;0.23;0.23;;;;;;;;;;4951561;28;20050;-86
2022/05/02 06:51:49;;;;;;;1.33;0.73;;;;;;;;;;4949309;28;20050;-86
2022/05/02 06:54:34;;;;;;;0.40;0.20;;;;;;;;;;4950401;28;20267;-86
2022/05/02 06:57:08;;;;;;;0.25;0.25;;;;;;;;;;4949252;28;20043;-87
2022/05/02 06:59:39;;;;;;;0.28;0.28;;;;;;;;;;4951870;28;20054;-88
2022/05/02 07:02:24;;;;;;;0.82;0.68;;;;;;;;;;4951060;28;20585;-87
2022/05/02 07:04:51;;;;;;;0.10;0.10;;;;;;;;;;4948016;28;20039;-88
2022/05/02 07:07:17;;;;;;;0.10;0.10;;;;;;;;;;4947856;28;20031;-87
2022/05/02 07:09:53;;;;;;;0.05;0.05;;;;;;;;;;4952117;28;20704;-87
2022/05/02 07:12:22;;;;;;;1.02;0.95;;;;;;;;;;4947153;28;20035;-87
2022/05/02 07:15:00;;;;;;;0.65;0.45;;;;;;;;;;4956411;28;20138;-88
2022/05/02 07:17:47;;;;;;;0.15;0.15;;;;;;;;;;4949176;28;20031;-88
2022/05/02 07:20:19;;;;;;;0.13;0.13;;;;;;;;;;4949568;28;20058;-88
2022/05/02 07:23:04;;;;;;;0.28;0.28;;;;;;;;;;4944940;29;20035;-88
2022/05/02 07:25:30;;;;;;;0.20;0.20;;;;;;;;;;4946113;29;20066;-88
2022/05/02 07:28:09;;;;;;;0.00;0.00;;;;;;;;;;4946360;28;20077;-88
2022/05/02 07:30:35;;;;;;;0.30;0.30;;;;;;;;;;4946547;28;20057;-88
2022/05/02 07:33:03;;;;;;;0.28;0.28;;;;;;;;;;4947109;29;20042;-89
2022/05/02 07:35:30;;;;;;;0.50;0.40;;;;;;;;;;4945057;28;20050;-88
2022/05/02 07:37:58;;;;;;;0.90;0.70;;;;;;;;;;4946411;28;20035;-88
2022/05/02 07:40:25;;;;;;;0.10;0.10;;;;;;;;;;4946649;28;20098;-87
2022/05/02 07:42:53;;;;;;;0.05;0.05;;;;;;;;;;4944287;29;20861;-88
2022/05/02 07:45:21;;;;;;;0.50;0.50;;;;;;;;;;4946101;28;20527;-88
2022/05/02 07:47:48;;;;;;;0.03;0.03;;;;;;;;;;4944306;29;20757;-89
2022/05/02 07:50:16;;;;;;;0.30;0.20;;;;;;;;;;4945857;28;20055;-89
2022/05/02 07:52:43;;;;;;;0.10;0.10;;;;;;;;;;4945549;28;20133;-89
2022/05/02 07:55:10;;;;;;;0.73;0.30;;;;;;;;;;4946490;28;20031;-89
2022/05/02 07:57:38;;;;;;;0.63;0.45;;;;;;;;;;4946369;28;20027;-88
2022/05/02 08:00:05;;;;;;;0.10;0.10;;;;;;;;;;4946150;29;20031;-88
2022/05/02 08:02:31;;;;;;;0.00;0.00;;;;;;;;;;4945727;29;20041;-89
2022/05/02 08:04:57;;;;;;;0.10;0.10;;;;;;;;;;4945679;29;20038;-88
2022/05/02 08:07:23;;;;;;;0.40;0.40;;;;;;;;;;4945634;29;20464;-88
2022/05/02 08:09:49;;;;;;;;;;;;;;;;;;4946241;28;20031;-88
2022/05/02 08:12:18;;;;;;;0.38;0.38;;;;;;;;;;4945993;28;19937;-89
2022/05/02 08:14:54;;;;;;;0.30;0.20;;;;;;;;;;4946189;29;20031;-90
2022/05/02 08:17:20;;;;;;;0.60;0.45;;;;;;;;;;4945621;28;20085;-90
2022/05/02 08:19:49;;;;;;;0.40;0.17;;;;;;;;;;4945173;29;20823;-89
2022/05/02 08:28:15;;;;;;;0.52;0.20;;;;;;;;;;4893039;29;20192;-89
2022/05/02 08:31:07;;;;;;;0.32;0.20;;;;;;;;;;4886449;29;20702;-89
2022/05/02 08:33:33;;;;;;;0.00;0.00;;;;;;;;;;4883176;29;20055;-90
2022/05/02 08:36:05;;;;;;;0.00;0.00;;;;;;;;;;4887767;29;20077;-90
2022/05/02 08:38:48;;;;;;;0.75;0.20;;;;;;;;;;4889681;29;20068;-90
2022/05/02 08:41:16;;;;;;;0.00;0.00;;;;;;;;;;4887328;29;20521;-88
2022/05/02 08:44:01;;;;;;;0.30;0.30;;;;;;;;;;4887390;29;20063;-89
2022/05/02 08:46:45;;;;;;;0.10;0.10;;;;;;;;;;4886505;29;20730;-89
2022/05/02 08:51:57;;;;;;;0.10;0.10;;;;;;;;;;4883896;29;20660;-90
2022/05/02 08:54:26;;;;;;;0.08;0.03;;;;;;;;;;4887216;29;20048;-88
2022/05/02 08:57:05;;;;;;;0.10;0.10;;;;;;;;;;4887593;29;20048;-89
2022/05/02 08:59:50;;;;;;;0.00;0.00;;;;;;;;;;4928647;29;20130;-88
2022/05/02 09:02:16;;;;;;;0.10;0.10;;;;;;;;;;4943718;29;20081;-91
2022/05/02 09:04:42;;;;;;;0.28;0.10;;;;;;;;;;4945813;28;20043;-90
2022/05/02 09:07:08;;;;;;;;;;;;;;;;;;4945621;28;20043;-90
2022/05/02 09:09:58;;;;;;;0.30;0.20;;;;;;;;;;4945018;29;19926;-90
2022/05/02 09:12:50;;;;;;;0.28;0.20;;;;;;;;;;4938238;29;20039;-90
2022/05/02 09:15:22;;;;;;;0.55;0.43;;;;;;;;;;4944344;29;20046;-88
2022/05/02 09:18:00;;;;;;;0.75;0.47;;;;;;;;;;4945083;29;20497;-89
2022/05/02 09:20:29;;;;;;;0.50;0.43;;;;;;;;;;4944560;29;20046;-88
2022/05/02 09:23:11;;;;;;;0.20;0.20;;;;;;;;;;4944901;28;20597;-88
2022/05/02 09:25:40;;;;;;;0.22;0.22;;;;;;;;;;4937770;29;20071;-88
2022/05/02 09:28:20;;;;;;;0.40;0.40;;;;;;;;;;4944943;29;20039;-89
2022/05/02 09:30:46;;;;;;;0.00;0.00;;;;;;;;;;4937970;29;20035;-81
2022/05/02 09:33:15;;;;;;;0.10;0.10;;;;;;;;;;4944723;28;20047;-82
2022/05/02 09:35:52;;;;;;;0.45;0.45;;;;;;;;;;4944710;29;20507;-82
2022/05/02 09:38:29;;;;;;;0.00;0.00;;;;;;;;;;4944949;28;20599;-82
2022/05/02 09:41:07;;;;;;;0.10;0.10;;;;;;;;;;4939032;29;20027;-81
2022/05/02 09:49:33;;;;;;;0.20;0.20;;;;;;;;;;4939999;29;20541;-81
2022/05/02 09:52:15;;;;;;;0.60;0.30;;;;;;;;;;4944733;28;20515;-81
2022/05/02 09:57:35;;;;;;;0.20;0.20;;;;;;;;;;4943678;28;20409;-82
2022/05/02 10:02:59;;;;;;;0.47;0.32;;;;;;;;;;4946928;29;20520;-81
2022/05/02 10:05:27;;;;;;;0.20;0.20;;;;;;;;;;4947782;28;20463;-81
2022/05/02 10:08:01;;;;;;;0.40;0.40;;;;;;;;;;4947693;28;20050;-80
2022/05/02 10:10:33;;;;;;;0.10;0.10;;;;;;;;;;4940496;29;20478;-81
2022/05/02 10:13:02;;;;;;;0.45;0.22;;;;;;;;;;4946607;29;20031;-81
2022/05/02 10:15:28;;;;;;;0.90;0.47;;;;;;;;;;4947352;29;20114;-81
2022/05/02 10:18:05;;;;;;;0.20;0.20;;;;;;;;;;4948235;28;20097;-81
2022/05/02 10:20:55;;;;;;;0.40;0.40;;;;;;;;;;4946839;29;20614;-83
2022/05/02 10:23:40;;;;;;;0.10;0.10;;;;;;;;;;4937767;29;20047;-81
2022/05/02 10:26:06;;;;;;;;;;;;;;;;;;4944196;29;20035;-80
2022/05/02 10:28:53;;;;;;;1.60;0.45;;;;;;;;;;4946791;28;20394;-82
2022/05/02 10:31:21;;;;;;;2.90;1.10;;;;;;;;;;4944889;29;20045;-83
2022/05/02 10:33:50;;;;;;;0.00;0.00;;;;;;;;;;4939802;29;20042;-83
2022/05/02 10:36:19;;;;;;;0.68;0.25;;;;;;;;;;4946886;28;20039;-81
2022/05/02 10:38:45;;;;;;;0.10;0.10;;;;;;;;;;4946927;29;20023;-81
2022/05/02 10:41:20;;;;;;;0.10;0.10;;;;;;;;;;4946995;28;20046;-81
2022/05/02 10:43:50;;;;;;;1.10;0.15;;;;;;;;;;4946785;29;20027;-81
2022/05/02 10:46:18;;;;;;;0.10;0.10;;;;;;;;;;4946443;29;20463;-81
2022/05/02 10:49:12;;;;;;;0.63;0.38;;;;;;;;;;4946766;28;20130;-81
2022/05/02 10:52:02;;;;;;;0.00;0.00;;;;;;;;;;4941424;28;20047;-81
2022/05/02 10:54:31;;;;;;;0.80;0.60;;;;;;;;;;4944945;29;21946;-81
2022/05/02 10:57:02;;;;;;;0.05;0.03;;;;;;;;;;4947307;28;20054;-81
2022/05/02 10:59:30;;;;;;;0.40;0.40;;;;;;;;;;4946560;28;20058;-81
2022/05/02 11:02:13;;;;;;;0.00;0.00;;;;;;;;;;4946606;28;20031;-80
2022/05/02 11:04:58;;;;;;;0.88;0.82;;;;;;;;;;4946950;28;20062;-81
2022/05/02 11:07:35;;;;;;;0.38;0.38;;;;;;;;;;4939966;29;20027;-81
2022/05/02 11:10:05;;;;;;;0.10;0.05;;;;;;;;;;4946421;28;20035;-81
2022/05/02 11:12:36;;;;;;;0.30;0.30;;;;;;;;;;4946592;28;20062;-81
2022/05/02 11:15:05;;;;;;;0.47;0.30;;;;;;;;;;4947271;28;20590;-81
2022/05/02 11:17:50;;;;;;;0.00;0.00;;;;;;;;;;4944798;29;20570;-81
2022/05/02 11:23:24;;;;;;;0.05;0.05;;;;;;;;;;4946412;29;20042;-81
2022/05/02 11:26:07;;;;;;;2.08;0.20;;;;;;;;;;4946182;29;20054;-82
2022/05/02 11:28:52;;;;;;;1.75;0.25;;;;;;;;;;4946042;28;20422;-82
2022/05/02 11:31:37;;;;;;;0.00;0.00;;;;;;;;;;4946104;29;20483;-89
2022/05/02 11:34:10;;;;;;;0.13;0.10;;;;;;;;;;4946933;28;21909;-89
2022/05/02 11:36:41;;;;;;;0.10;0.10;;;;;;;;;;4946180;28;20101;-88
2022/05/02 11:39:10;;;;;;;0.10;0.10;;;;;;;;;;4945153;29;20038;-89
2022/05/02 11:41:42;;;;;;;0.20;0.20;;;;;;;;;;4945354;29;20027;-89
2022/05/02 11:44:13;;;;;;;0.08;0.08;;;;;;;;;;4946082;29;20039;-88
2022/05/02 11:46:59;;;;;;;0.10;0.10;;;;;;;;;;4946509;28;20027;-90
2022/05/02 11:49:44;;;;;;;0.70;0.70;;;;;;;;;;4941312;28;20074;-89
2022/05/02 11:52:14;;;;;;;0.38;0.20;;;;;;;;;;4941785;28;20059;-90
2022/05/02 11:54:42;;;;;;;0.22;0.20;;;;;;;;;;4943436;29;20042;-89
2022/05/02 11:57:13;;;;;;;0.68;0.50;;;;;;;;;;4946581;28;20098;-88
2022/05/02 11:59:52;;;;;;;0.20;0.20;;;;;;;;;;4946010;29;20042;-89
2022/05/02 12:02:41;;;;;;;0.10;0.10;;;;;;;;;;4943827;29;20463;-89
2022/05/02 12:05:20;;;;;;;0.10;0.10;;;;;;;;;;4939686;28;20138;-89
2022/05/02 12:07:57;;;;;;;0.15;0.15;;;;;;;;;;4945745;29;20042;-88
2022/05/02 12:10:33;;;;;;;0.00;0.00;;;;;;;;;;4945437;29;20043;-89
2022/05/02 12:13:00;;;;;;;0.10;0.10;;;;;;;;;;4945257;28;20027;-89
2022/05/02 12:15:26;;;;;;;0.30;0.10;;;;;;;;;;4945879;29;20042;-89
2022/05/02 12:18:06;;;;;;;1.45;0.17;;;;;;;;;;4945815;28;20045;-88
2022/05/02 12:20:39;;;;;;;0.17;0.17;;;;;;;;;;4945295;28;20050;-88
2022/05/02 12:23:06;;;;;;;0.10;0.10;;;;;;;;;;4944164;29;20067;-89
2022/05/02 12:25:32;;;;;;;0.03;0.03;;;;;;;;;;4945996;28;20121;-89
2022/05/02 12:27:58;;;;;;;;;;;;;;;;;;4946013;28;20031;-88
2022/05/02 12:30:24;;;;;;;;;;;;;;;;;;4946425;29;19929;-89
2022/05/02 12:32:51;;;;;;;0.70;0.70;;;;;;;;;;4945843;28;20378;-89
2022/05/02 12:35:19;;;;;;;0.20;0.20;;;;;;;;;;4943864;29;20508;-89
2022/05/02 12:37:47;;;;;;;1.10;0.47;;;;;;;;;;4945438;29;20034;-89
2022/05/02 12:40:14;;;;;;;0.00;0.00;;;;;;;;;;4945379;28;20071;-90
2022/05/02 12:42:40;;;;;;;;;;;;;;;;;;4946195;29;20038;-90
2022/05/02 12:45:11;;;;;;;;;;;;;;;;;;4945207;29;19911;-89
2022/05/02 12:47:41;;;;;;;0.10;0.10;;;;;;;;;;4945495;29;19922;-88
2022/05/02 12:50:20;;;;;;;0.00;0.00;;;;;;;;;;4944815;28;20153;-89
2022/05/02 12:52:47;;;;;;;0.10;0.10;;;;;;;;;;4945332;28;20047;-89
2022/05/02 12:55:14;;;;;;;0.00;0.00;;;;;;;;;;4944698;28;20027;-88
2022/05/02 13:00:33;;;;;;;1.42;0.82;;;;;;;;;;4944652;29;20065;-88
2022/05/02 13:03:19;;;;;;;0.43;0.43;;;;;;;;;;4945923;28;20035;-87
2022/05/02 13:05:53;;;;;;;0.00;0.00;;;;;;;;;;4944265;29;20035;-88
2022/05/02 13:08:33;;;;;;;0.10;0.10;;;;;;;;;;4944712;29;20558;-88
2022/05/02 13:11:13;;;;;;;0.10;0.10;;;;;;;;;;4944792;28;20027;-87
2022/05/02 13:13:52;;;;;;;0.32;0.17;;;;;;;;;;4944617;28;20522;-87
2022/05/02 13:16:18;;;;;;;0.52;0.52;;;;;;;;;;4944858;29;20039;-87
2022/05/02 13:18:48;;;;;;;0.00;0.00;;;;;;;;;;4944905;29;20114;-88
2022/05/02 13:21:15;;;;;;;0.15;0.10;;;;;;;;;;4944866;28;20410;-87
2022/05/02 13:23:43;;;;;;;0.77;0.30;;;;;;;;;;4944439;29;20030;-90
2022/05/02 13:26:30;;;;;;;0.08;0.08;;;;;;;;;;4944882;28;20767;-89
2022/05/02 13:29:05;;;;;;;0.20;0.13;;;;;;;;;;4945162;29;20589;-89
2022/05/02 13:31:38;;;;;;;0.00;0.00;;;;;;;;;;4944351;28;20069;-80
2022/05/02 13:34:05;;;;;;;0.05;0.05;;;;;;;;;;4946355;28;20043;-80
2022/05/02 13:36:40;;;;;;;0.35;0.30;;;;;;;;;;4947624;28;20031;-80
2022/05/02 13:39:20;;;;;;;0.00;0.00;;;;;;;;;;4948211;29;20031;-80
2022/05/02 13:41:49;;;;;;;0.00;0.00;;;;;;;;;;4947683;29;20031;-81
2022/05/02 13:44:32;;;;;;;0.22;0.22;;;;;;;;;;4948000;29;20570;-81
2022/05/02 13:47:03;;;;;;;0.10;0.08;;;;;;;;;;4946557;29;20594;-80
2022/05/02 13:49:44;;;;;;;1.10;0.47;;;;;;;;;;4948128;28;20039;-81
2022/05/02 13:52:16;;;;;;;0.10;0.10;;;;;;;;;;4947737;28;20146;-81
2022/05/02 13:54:48;;;;;;;0.00;0.00;;;;;;;;;;4945191;29;20644;-81
2022/05/02 13:57:19;;;;;;;0.00;0.00;;;;;;;;;;4943116;29;20231;-81
2022/05/02 13:59:55;;;;;;;0.00;0.00;;;;;;;;;;4948062;28;20035;-81
2022/05/02 14:02:22;;;;;;;;;;;;;;;;;;4948371;29;20039;-81
2022/05/02 14:04:54;;;;;;;0.05;0.05;;;;;;;;;;4947829;28;19915;-81
2022/05/02 14:07:24;;;;;;;0.00;0.00;;;;;;;;;;4947392;29;20141;-81
2022/05/02 14:09:53;;;;;;;0.00;0.00;;;;;;;;;;4947404;28;20129;-81
2022/05/02 14:12:19;;;;;;;2.08;0.47;;;;;;;;;;4947713;29;20158;-81
2022/05/02 14:14:55;;;;;;;0.20;0.20;;;;;;;;;;4947198;29;20043;-81
2022/05/02 14:17:46;;;;;;;0.00;0.00;;;;;;;;;;4945262;29;20035;-81
2022/05/02 14:20:13;;;;;;;0.00;0.00;;;;;;;;;;4947246;28;20087;-81
2022/05/02 14:22:40;;;;;;;0.13;0.03;;;;;;;;;;4946873;28;20050;-81
2022/05/02 14:25:06;;;;;;;0.00;0.00;;;;;;;;;;4947161;28;20418;-80
2022/05/02 14:27:32;;;;;;;;;;;;;;;;;;4947828;29;20043;-81
2022/05/02 14:29:58;;;;;;;;;;;;;;;;;;4948294;28;19925;-80
2022/05/02 14:32:38;;;;;;;0.25;0.25;;;;;;;;;;4947128;29;19921;-80
2022/05/02 14:35:05;;;;;;;0.10;0.10;;;;;;;;;;4946784;28;20035;-80
2022/05/02 14:37:32;;;;;;;0.10;0.10;;;;;;;;;;4946634;28;20031;-80
2022/05/02 14:39:58;;;;;;;0.35;0.35;;;;;;;;;;4947416;29;20031;-80
2022/05/02 14:42:25;;;;;;;0.28;0.10;;;;;;;;;;4942597;29;20031;-80
2022/05/02 14:44:52;;;;;;;0.30;0.20;;;;;;;;;;4947269;28;20562;-80
2022/05/02 14:47:18;;;;;;;0.10;0.10;;;;;;;;;;4946823;28;20059;-80
2022/05/02 14:49:44;;;;;;;0.00;0.00;;;;;;;;;;4947077;28;20067;-81
2022/05/02 14:52:18;;;;;;;0.00;0.00;;;;;;;;;;4949818;28;20054;-81
2022/05/02 14:54:45;;;;;;;0.00;0.00;;;;;;;;;;4940873;29;20050;-80
2022/05/02 14:57:13;;;;;;;0.10;0.10;;;;;;;;;;4947969;29;20056;-80
2022/05/02 14:59:41;;;;;;;0.13;0.13;;;;;;;;;;4946873;29;20027;-80
2022/05/02 15:02:08;;;;;;;0.22;0.22;;;;;;;;;;4947083;28;20031;-81
2022/05/02 15:04:39;;;;;;;0.10;0.10;;;;;;;;;;4946415;28;20865;-80
2022/05/02 15:07:08;;;;;;;3.08;1.90;;;;;;;;;;4946631;28;20042;-80
2022/05/02 15:12:47;;;;;;;0.90;0.65;;;;;;;;;;4946086;29;20082;-80
2022/05/02 15:15:34;;;;;;;1.25;0.47;;;;;;;;;;4943441;29;20031;-80
2022/05/02 15:18:17;;;;;;;0.20;0.10;;;;;;;;;;4945959;29;20035;-81
2022/05/02 15:20:45;;;;;;;0.75;0.40;;;;;;;;;;4946019;29;20506;-81
2022/05/02 15:23:14;;;;;;;0.17;0.10;;;;;;;;;;4946532;28;20149;-81
2022/05/02 15:25:50;;;;;;;0.25;0.10;;;;;;;;;;4946782;28;20044;-81
2022/05/02 15:36:46;;;;;;;0.43;0.40;;;;;;;;;;4944683;29;20130;-87
2022/05/02 15:39:12;;;;;;;0.00;0.00;;;;;;;;;;4946887;28;20069;-86
2022/05/02 15:41:41;;;;;;;0.43;0.20;;;;;;;;;;4945727;29;20031;-87
2022/05/02 15:44:21;;;;;;;0.35;0.35;;;;;;;;;;4945848;28;20043;-87
2022/05/02 15:46:54;;;;;;;0.63;0.50;;;;;;;;;;4946119;28;20031;-87
2022/05/02 15:49:22;;;;;;;2.25;0.30;;;;;;;;;;4945600;29;20039;-88
2022/05/02 15:51:52;;;;;;;0.25;0.25;;;;;;;;;;4945539;28;20058;-88
2022/05/02 15:54:18;;;;;;;0.10;0.10;;;;;;;;;;4944337;29;20039;-87